金門航空站 - ATIS

METAR RCBS 181200Z 05011KT 9999 FEW012 BKN030 BKN080 13/07 Q1022 NOSIG RMK A3019(F)=

站台狀態:Online
最後更新:2020-01-18 20:15:01